sensor_id;sensor_type;location;lat;lon;timestamp;temperature;humidity
64396;DHT22;50717;53.360;6.290;2024-03-22T00:00:42;10.90;99.90
64396;DHT22;50717;53.360;6.290;2024-03-22T00:03:07;10.90;99.90
64396;DHT22;50717;53.360;6.290;2024-03-22T00:05:33;10.90;99.90
64396;DHT22;50717;53.360;6.290;2024-03-22T00:07:59;10.70;99.90
64396;DHT22;50717;53.360;6.290;2024-03-22T00:10:24;10.80;99.90
64396;DHT22;50717;53.360;6.290;2024-03-22T00:12:50;10.90;99.90
64396;DHT22;50717;53.360;6.290;2024-03-22T00:15:16;11.00;99.90
64396;DHT22;50717;53.360;6.290;2024-03-22T00:17:43;11.00;99.90
64396;DHT22;50717;53.360;6.290;2024-03-22T00:20:09;10.80;99.90
64396;DHT22;50717;53.360;6.290;2024-03-22T00:22:34;11.30;99.90
64396;DHT22;50717;53.360;6.290;2024-03-22T00:25:00;11.20;99.90
64396;DHT22;50717;53.360;6.290;2024-03-22T00:27:26;11.20;99.90
64396;DHT22;50717;53.360;6.290;2024-03-22T00:29:51;10.70;99.90
64396;DHT22;50717;53.360;6.290;2024-03-22T00:32:17;11.20;99.90
64396;DHT22;50717;53.360;6.290;2024-03-22T00:34:43;11.30;99.90
64396;DHT22;50717;53.360;6.290;2024-03-22T00:37:09;11.10;99.90
64396;DHT22;50717;53.360;6.290;2024-03-22T00:39:34;11.70;99.90
64396;DHT22;50717;53.360;6.290;2024-03-22T00:42:01;11.10;99.90
64396;DHT22;50717;53.360;6.290;2024-03-22T00:44:26;10.90;99.90
64396;DHT22;50717;53.360;6.290;2024-03-22T00:46:52;11.30;99.90
64396;DHT22;50717;53.360;6.290;2024-03-22T00:49:18;11.10;99.90
64396;DHT22;50717;53.360;6.290;2024-03-22T00:51:44;11.90;99.90
64396;DHT22;50717;53.360;6.290;2024-03-22T00:54:10;11.30;99.90
64396;DHT22;50717;53.360;6.290;2024-03-22T00:56:36;11.20;99.90
64396;DHT22;50717;53.360;6.290;2024-03-22T00:59:01;11.00;99.90
64396;DHT22;50717;53.360;6.290;2024-03-22T01:01:27;11.00;99.90
64396;DHT22;50717;53.360;6.290;2024-03-22T01:03:53;11.30;99.90
64396;DHT22;50717;53.360;6.290;2024-03-22T01:06:18;11.10;99.90
64396;DHT22;50717;53.360;6.290;2024-03-22T01:08:49;11.40;99.90
64396;DHT22;50717;53.360;6.290;2024-03-22T01:11:15;10.90;99.90
64396;DHT22;50717;53.360;6.290;2024-03-22T01:13:40;11.30;99.90
64396;DHT22;50717;53.360;6.290;2024-03-22T01:16:06;11.30;99.90
64396;DHT22;50717;53.360;6.290;2024-03-22T01:18:35;11.30;99.90
64396;DHT22;50717;53.360;6.290;2024-03-22T01:21:01;11.20;99.90
64396;DHT22;50717;53.360;6.290;2024-03-22T01:23:27;11.00;99.90
64396;DHT22;50717;53.360;6.290;2024-03-22T01:25:52;11.70;99.90
64396;DHT22;50717;53.360;6.290;2024-03-22T01:28:18;11.00;99.90
64396;DHT22;50717;53.360;6.290;2024-03-22T01:30:44;11.60;99.90
64396;DHT22;50717;53.360;6.290;2024-03-22T01:33:09;11.20;99.90
64396;DHT22;50717;53.360;6.290;2024-03-22T01:35:35;11.30;99.90
64396;DHT22;50717;53.360;6.290;2024-03-22T01:38:00;11.80;99.90
64396;DHT22;50717;53.360;6.290;2024-03-22T01:40:26;11.20;99.90
64396;DHT22;50717;53.360;6.290;2024-03-22T01:42:59;11.70;99.90
64396;DHT22;50717;53.360;6.290;2024-03-22T01:45:25;11.80;99.90
64396;DHT22;50717;53.360;6.290;2024-03-22T01:47:52;11.40;99.90
64396;DHT22;50717;53.360;6.290;2024-03-22T01:50:22;11.70;99.90
64396;DHT22;50717;53.360;6.290;2024-03-22T01:52:47;12.10;99.90
64396;DHT22;50717;53.360;6.290;2024-03-22T01:55:13;11.30;99.90
64396;DHT22;50717;53.360;6.290;2024-03-22T01:57:39;11.20;99.90
64396;DHT22;50717;53.360;6.290;2024-03-22T02:00:06;12.80;99.90
64396;DHT22;50717;53.360;6.290;2024-03-22T02:02:34;11.60;99.90
64396;DHT22;50717;53.360;6.290;2024-03-22T02:04:59;11.30;99.90
64396;DHT22;50717;53.360;6.290;2024-03-22T02:07:29;11.50;99.90
64396;DHT22;50717;53.360;6.290;2024-03-22T02:09:55;11.50;99.90
64396;DHT22;50717;53.360;6.290;2024-03-22T02:12:22;11.90;99.90
64396;DHT22;50717;53.360;6.290;2024-03-22T02:14:48;11.40;99.90
64396;DHT22;50717;53.360;6.290;2024-03-22T02:17:13;11.60;99.90
64396;DHT22;50717;53.360;6.290;2024-03-22T02:19:39;12.00;99.90
64396;DHT22;50717;53.360;6.290;2024-03-22T02:22:04;11.50;99.90
64396;DHT22;50717;53.360;6.290;2024-03-22T02:24:30;11.60;99.90
64396;DHT22;50717;53.360;6.290;2024-03-22T02:26:56;12.40;99.90
64396;DHT22;50717;53.360;6.290;2024-03-22T02:29:21;12.20;99.90
64396;DHT22;50717;53.360;6.290;2024-03-22T02:31:47;11.50;99.90
64396;DHT22;50717;53.360;6.290;2024-03-22T02:34:13;12.60;99.90
64396;DHT22;50717;53.360;6.290;2024-03-22T02:36:38;11.60;99.90
64396;DHT22;50717;53.360;6.290;2024-03-22T02:39:04;11.80;99.90
64396;DHT22;50717;53.360;6.290;2024-03-22T02:41:30;11.70;99.90
64396;DHT22;50717;53.360;6.290;2024-03-22T02:43:55;11.50;99.90
64396;DHT22;50717;53.360;6.290;2024-03-22T02:46:21;11.90;99.90
64396;DHT22;50717;53.360;6.290;2024-03-22T02:48:47;11.50;99.90
64396;DHT22;50717;53.360;6.290;2024-03-22T02:51:12;11.80;99.90
64396;DHT22;50717;53.360;6.290;2024-03-22T02:53:38;11.30;99.90
64396;DHT22;50717;53.360;6.290;2024-03-22T02:56:04;11.90;99.90
64396;DHT22;50717;53.360;6.290;2024-03-22T02:58:29;11.30;99.90
64396;DHT22;50717;53.360;6.290;2024-03-22T03:00:55;11.70;99.90
64396;DHT22;50717;53.360;6.290;2024-03-22T03:03:21;12.00;99.90
64396;DHT22;50717;53.360;6.290;2024-03-22T03:05:46;11.80;99.90
64396;DHT22;50717;53.360;6.290;2024-03-22T03:08:12;11.60;99.90
64396;DHT22;50717;53.360;6.290;2024-03-22T03:10:38;11.90;99.90
64396;DHT22;50717;53.360;6.290;2024-03-22T03:13:03;11.50;99.90
64396;DHT22;50717;53.360;6.290;2024-03-22T03:15:29;12.00;99.90
64396;DHT22;50717;53.360;6.290;2024-03-22T03:17:55;12.10;99.90
64396;DHT22;50717;53.360;6.290;2024-03-22T03:20:20;11.30;99.90
64396;DHT22;50717;53.360;6.290;2024-03-22T03:22:46;11.30;99.90
64396;DHT22;50717;53.360;6.290;2024-03-22T03:25:11;11.50;99.90
64396;DHT22;50717;53.360;6.290;2024-03-22T03:27:37;11.80;99.90
64396;DHT22;50717;53.360;6.290;2024-03-22T03:30:03;11.80;99.90
64396;DHT22;50717;53.360;6.290;2024-03-22T03:32:30;11.60;99.90
64396;DHT22;50717;53.360;6.290;2024-03-22T03:34:55;11.60;99.90
64396;DHT22;50717;53.360;6.290;2024-03-22T03:37:21;12.00;99.90
64396;DHT22;50717;53.360;6.290;2024-03-22T03:39:47;11.30;99.90
64396;DHT22;50717;53.360;6.290;2024-03-22T03:42:12;11.50;99.90
64396;DHT22;50717;53.360;6.290;2024-03-22T03:44:38;12.00;99.90
64396;DHT22;50717;53.360;6.290;2024-03-22T03:47:04;11.20;99.90
64396;DHT22;50717;53.360;6.290;2024-03-22T03:49:29;11.50;99.90
64396;DHT22;50717;53.360;6.290;2024-03-22T03:51:55;11.60;99.90
64396;DHT22;50717;53.360;6.290;2024-03-22T03:54:21;11.60;99.90
64396;DHT22;50717;53.360;6.290;2024-03-22T03:56:46;11.60;99.90
64396;DHT22;50717;53.360;6.290;2024-03-22T03:59:12;11.60;99.90
64396;DHT22;50717;53.360;6.290;2024-03-22T04:01:38;11.60;99.90
64396;DHT22;50717;53.360;6.290;2024-03-22T04:04:03;11.90;99.90
64396;DHT22;50717;53.360;6.290;2024-03-22T04:06:29;11.50;99.90
64396;DHT22;50717;53.360;6.290;2024-03-22T04:08:55;11.50;99.90
64396;DHT22;50717;53.360;6.290;2024-03-22T04:11:21;11.20;99.90
64396;DHT22;50717;53.360;6.290;2024-03-22T04:13:46;11.70;99.90
64396;DHT22;50717;53.360;6.290;2024-03-22T04:16:13;12.30;99.90
64396;DHT22;50717;53.360;6.290;2024-03-22T04:18:38;11.30;99.90
64396;DHT22;50717;53.360;6.290;2024-03-22T04:21:04;11.30;99.90
64396;DHT22;50717;53.360;6.290;2024-03-22T04:23:30;11.50;99.90
64396;DHT22;50717;53.360;6.290;2024-03-22T04:25:57;11.50;99.90
64396;DHT22;50717;53.360;6.290;2024-03-22T04:28:27;11.50;99.90
64396;DHT22;50717;53.360;6.290;2024-03-22T04:31:03;11.30;99.90
64396;DHT22;50717;53.360;6.290;2024-03-22T04:33:30;11.40;99.90
64396;DHT22;50717;53.360;6.290;2024-03-22T04:35:56;11.40;99.90
64396;DHT22;50717;53.360;6.290;2024-03-22T04:38:26;11.30;99.90
64396;DHT22;50717;53.360;6.290;2024-03-22T04:40:53;11.50;99.90
64396;DHT22;50717;53.360;6.290;2024-03-22T04:43:19;11.50;99.90
64396;DHT22;50717;53.360;6.290;2024-03-22T04:45:46;11.40;99.90
64396;DHT22;50717;53.360;6.290;2024-03-22T04:48:22;11.30;99.90
64396;DHT22;50717;53.360;6.290;2024-03-22T04:50:49;11.00;99.90
64396;DHT22;50717;53.360;6.290;2024-03-22T04:53:16;11.30;99.90
64396;DHT22;50717;53.360;6.290;2024-03-22T04:55:44;12.00;99.90
64396;DHT22;50717;53.360;6.290;2024-03-22T04:58:20;11.30;99.90
64396;DHT22;50717;53.360;6.290;2024-03-22T05:00:47;11.20;99.90
64396;DHT22;50717;53.360;6.290;2024-03-22T05:03:13;11.30;99.90
64396;DHT22;50717;53.360;6.290;2024-03-22T05:05:40;12.30;99.90
64396;DHT22;50717;53.360;6.290;2024-03-22T05:08:06;11.50;99.90
64396;DHT22;50717;53.360;6.290;2024-03-22T05:10:32;11.10;99.90
64396;DHT22;50717;53.360;6.290;2024-03-22T05:12:58;11.00;99.90
64396;DHT22;50717;53.360;6.290;2024-03-22T05:15:24;11.30;99.90
64396;DHT22;50717;53.360;6.290;2024-03-22T05:17:55;11.40;99.90
64396;DHT22;50717;53.360;6.290;2024-03-22T05:20:21;11.40;99.90
64396;DHT22;50717;53.360;6.290;2024-03-22T05:22:47;11.60;99.90
64396;DHT22;50717;53.360;6.290;2024-03-22T05:25:13;11.20;99.90
64396;DHT22;50717;53.360;6.290;2024-03-22T05:27:41;11.20;99.90
64396;DHT22;50717;53.360;6.290;2024-03-22T05:30:11;11.50;99.90
64396;DHT22;50717;53.360;6.290;2024-03-22T05:32:37;11.40;99.90
64396;DHT22;50717;53.360;6.290;2024-03-22T05:35:03;12.10;99.90
64396;DHT22;50717;53.360;6.290;2024-03-22T05:37:28;11.20;99.90
64396;DHT22;50717;53.360;6.290;2024-03-22T05:39:54;11.80;99.90
64396;DHT22;50717;53.360;6.290;2024-03-22T05:42:20;11.30;99.90
64396;DHT22;50717;53.360;6.290;2024-03-22T05:44:46;11.50;99.90
64396;DHT22;50717;53.360;6.290;2024-03-22T05:47:11;11.70;99.90
64396;DHT22;50717;53.360;6.290;2024-03-22T05:49:37;11.20;99.90
64396;DHT22;50717;53.360;6.290;2024-03-22T05:52:03;11.20;99.90
64396;DHT22;50717;53.360;6.290;2024-03-22T05:54:28;11.30;99.90
64396;DHT22;50717;53.360;6.290;2024-03-22T05:56:55;11.90;99.90
64396;DHT22;50717;53.360;6.290;2024-03-22T05:59:20;11.20;99.90
64396;DHT22;50717;53.360;6.290;2024-03-22T06:01:46;10.90;99.90
64396;DHT22;50717;53.360;6.290;2024-03-22T06:04:12;11.10;99.90
64396;DHT22;50717;53.360;6.290;2024-03-22T06:06:37;10.90;99.90
64396;DHT22;50717;53.360;6.290;2024-03-22T06:09:03;11.10;99.90
64396;DHT22;50717;53.360;6.290;2024-03-22T06:11:32;11.20;99.90
64396;DHT22;50717;53.360;6.290;2024-03-22T06:13:58;11.30;99.90
64396;DHT22;50717;53.360;6.290;2024-03-22T06:16:24;10.90;99.90
64396;DHT22;50717;53.360;6.290;2024-03-22T06:18:49;11.10;99.90
64396;DHT22;50717;53.360;6.290;2024-03-22T06:21:15;10.80;99.90
64396;DHT22;50717;53.360;6.290;2024-03-22T06:23:41;10.80;99.90
64396;DHT22;50717;53.360;6.290;2024-03-22T06:26:09;11.00;99.90
64396;DHT22;50717;53.360;6.290;2024-03-22T06:28:35;11.80;99.90
64396;DHT22;50717;53.360;6.290;2024-03-22T06:31:01;10.70;99.90
64396;DHT22;50717;53.360;6.290;2024-03-22T06:33:28;10.90;99.90
64396;DHT22;50717;53.360;6.290;2024-03-22T06:35:54;11.00;99.90
64396;DHT22;50717;53.360;6.290;2024-03-22T06:38:20;10.80;99.90
64396;DHT22;50717;53.360;6.290;2024-03-22T06:40:45;11.30;99.90
64396;DHT22;50717;53.360;6.290;2024-03-22T06:43:11;10.80;99.90
64396;DHT22;50717;53.360;6.290;2024-03-22T06:45:37;10.30;99.90
64396;DHT22;50717;53.360;6.290;2024-03-22T06:48:02;11.90;99.90
64396;DHT22;50717;53.360;6.290;2024-03-22T06:50:28;11.00;99.90
64396;DHT22;50717;53.360;6.290;2024-03-22T06:52:54;10.70;99.90
64396;DHT22;50717;53.360;6.290;2024-03-22T06:55:20;10.70;99.90
64396;DHT22;50717;53.360;6.290;2024-03-22T06:57:47;10.80;99.90
64396;DHT22;50717;53.360;6.290;2024-03-22T07:00:14;10.40;99.90
64396;DHT22;50717;53.360;6.290;2024-03-22T07:02:39;11.20;99.90
64396;DHT22;50717;53.360;6.290;2024-03-22T07:05:06;11.50;99.90
64396;DHT22;50717;53.360;6.290;2024-03-22T07:07:32;10.80;99.90
64396;DHT22;50717;53.360;6.290;2024-03-22T07:09:59;11.20;99.90
64396;DHT22;50717;53.360;6.290;2024-03-22T07:12:25;11.30;99.90
64396;DHT22;50717;53.360;6.290;2024-03-22T07:14:51;10.60;99.90
64396;DHT22;50717;53.360;6.290;2024-03-22T07:17:16;10.80;99.90
64396;DHT22;50717;53.360;6.290;2024-03-22T07:19:42;11.80;99.90
64396;DHT22;50717;53.360;6.290;2024-03-22T07:22:08;11.30;99.90
64396;DHT22;50717;53.360;6.290;2024-03-22T07:24:34;10.80;99.90
64396;DHT22;50717;53.360;6.290;2024-03-22T07:26:59;10.90;99.90
64396;DHT22;50717;53.360;6.290;2024-03-22T07:29:25;10.80;99.90
64396;DHT22;50717;53.360;6.290;2024-03-22T07:31:51;11.00;99.90
64396;DHT22;50717;53.360;6.290;2024-03-22T07:34:16;11.50;99.90
64396;DHT22;50717;53.360;6.290;2024-03-22T07:36:42;11.10;99.90
64396;DHT22;50717;53.360;6.290;2024-03-22T07:39:08;11.10;99.90
64396;DHT22;50717;53.360;6.290;2024-03-22T07:41:34;11.10;99.90
64396;DHT22;50717;53.360;6.290;2024-03-22T07:44:01;11.20;99.90
64396;DHT22;50717;53.360;6.290;2024-03-22T07:46:27;10.40;99.90
64396;DHT22;50717;53.360;6.290;2024-03-22T07:48:52;11.10;99.90
64396;DHT22;50717;53.360;6.290;2024-03-22T07:51:19;12.00;99.90
64396;DHT22;50717;53.360;6.290;2024-03-22T07:53:45;12.20;99.90
64396;DHT22;50717;53.360;6.290;2024-03-22T07:56:11;10.80;99.90
64396;DHT22;50717;53.360;6.290;2024-03-22T07:58:37;11.30;99.90
64396;DHT22;50717;53.360;6.290;2024-03-22T08:01:03;10.80;99.90
64396;DHT22;50717;53.360;6.290;2024-03-22T08:03:29;10.80;99.90
64396;DHT22;50717;53.360;6.290;2024-03-22T08:05:54;10.90;99.90
64396;DHT22;50717;53.360;6.290;2024-03-22T08:08:20;10.60;99.90
64396;DHT22;50717;53.360;6.290;2024-03-22T08:10:46;10.90;99.90
64396;DHT22;50717;53.360;6.290;2024-03-22T08:13:11;10.90;99.90
64396;DHT22;50717;53.360;6.290;2024-03-22T08:15:37;11.10;99.90
64396;DHT22;50717;53.360;6.290;2024-03-22T08:18:03;11.10;99.90
64396;DHT22;50717;53.360;6.290;2024-03-22T08:20:28;10.80;99.90
64396;DHT22;50717;53.360;6.290;2024-03-22T08:22:55;10.90;99.90
64396;DHT22;50717;53.360;6.290;2024-03-22T08:25:21;11.10;99.90
64396;DHT22;50717;53.360;6.290;2024-03-22T08:27:49;11.80;99.90
64396;DHT22;50717;53.360;6.290;2024-03-22T08:30:14;11.00;99.90
64396;DHT22;50717;53.360;6.290;2024-03-22T08:32:40;10.90;99.90
64396;DHT22;50717;53.360;6.290;2024-03-22T08:35:06;10.90;99.90
64396;DHT22;50717;53.360;6.290;2024-03-22T08:37:33;11.30;99.90
64396;DHT22;50717;53.360;6.290;2024-03-22T08:39:59;10.80;99.90
64396;DHT22;50717;53.360;6.290;2024-03-22T08:42:25;11.00;99.90
64396;DHT22;50717;53.360;6.290;2024-03-22T08:44:50;11.70;99.90
64396;DHT22;50717;53.360;6.290;2024-03-22T08:47:16;10.80;99.90
64396;DHT22;50717;53.360;6.290;2024-03-22T08:49:42;11.10;99.90
64396;DHT22;50717;53.360;6.290;2024-03-22T08:52:10;11.00;99.90
64396;DHT22;50717;53.360;6.290;2024-03-22T08:54:35;11.30;99.90
64396;DHT22;50717;53.360;6.290;2024-03-22T08:57:01;10.70;99.90
64396;DHT22;50717;53.360;6.290;2024-03-22T08:59:27;11.00;99.90
64396;DHT22;50717;53.360;6.290;2024-03-22T09:01:53;10.90;99.90
64396;DHT22;50717;53.360;6.290;2024-03-22T09:04:19;12.20;99.90
64396;DHT22;50717;53.360;6.290;2024-03-22T09:06:45;11.10;99.90
64396;DHT22;50717;53.360;6.290;2024-03-22T09:09:12;10.80;99.90
64396;DHT22;50717;53.360;6.290;2024-03-22T09:11:38;10.50;99.90
64396;DHT22;50717;53.360;6.290;2024-03-22T09:14:03;11.30;99.90
64396;DHT22;50717;53.360;6.290;2024-03-22T09:16:29;11.00;99.90
64396;DHT22;50717;53.360;6.290;2024-03-22T09:18:56;11.80;99.90
64396;DHT22;50717;53.360;6.290;2024-03-22T09:21:21;11.00;99.90
64396;DHT22;50717;53.360;6.290;2024-03-22T09:23:47;11.50;99.90
64396;DHT22;50717;53.360;6.290;2024-03-22T09:26:13;11.00;99.90
64396;DHT22;50717;53.360;6.290;2024-03-22T09:28:39;11.30;99.90
64396;DHT22;50717;53.360;6.290;2024-03-22T09:31:06;11.40;99.90
64396;DHT22;50717;53.360;6.290;2024-03-22T09:33:35;11.20;99.90
64396;DHT22;50717;53.360;6.290;2024-03-22T09:36:02;10.50;99.90
64396;DHT22;50717;53.360;6.290;2024-03-22T09:38:28;10.70;99.90
64396;DHT22;50717;53.360;6.290;2024-03-22T09:40:54;10.60;99.90
64396;DHT22;50717;53.360;6.290;2024-03-22T09:43:20;11.10;99.90
64396;DHT22;50717;53.360;6.290;2024-03-22T09:45:50;11.10;99.90
64396;DHT22;50717;53.360;6.290;2024-03-22T09:48:22;11.20;99.90
64396;DHT22;50717;53.360;6.290;2024-03-22T09:50:49;11.30;99.90
64396;DHT22;50717;53.360;6.290;2024-03-22T09:53:21;11.40;99.90
64396;DHT22;50717;53.360;6.290;2024-03-22T09:55:49;11.50;99.90
64396;DHT22;50717;53.360;6.290;2024-03-22T09:58:15;10.90;99.90
64396;DHT22;50717;53.360;6.290;2024-03-22T10:00:44;11.00;99.90
64396;DHT22;50717;53.360;6.290;2024-03-22T10:03:10;11.10;99.90
64396;DHT22;50717;53.360;6.290;2024-03-22T10:05:36;11.00;99.90
64396;DHT22;50717;53.360;6.290;2024-03-22T10:08:05;11.30;99.90
64396;DHT22;50717;53.360;6.290;2024-03-22T10:10:32;11.40;99.90
64396;DHT22;50717;53.360;6.290;2024-03-22T10:13:00;11.00;99.90
64396;DHT22;50717;53.360;6.290;2024-03-22T10:15:26;11.40;99.90
64396;DHT22;50717;53.360;6.290;2024-03-22T10:17:52;10.80;99.90
64396;DHT22;50717;53.360;6.290;2024-03-22T10:20:21;11.50;99.90
64396;DHT22;50717;53.360;6.290;2024-03-22T10:22:57;11.20;99.90
64396;DHT22;50717;53.360;6.290;2024-03-22T10:25:24;10.80;99.90
64396;DHT22;50717;53.360;6.290;2024-03-22T10:27:49;11.20;99.90
64396;DHT22;50717;53.360;6.290;2024-03-22T10:30:16;10.90;99.90
64396;DHT22;50717;53.360;6.290;2024-03-22T10:32:43;11.40;99.90
64396;DHT22;50717;53.360;6.290;2024-03-22T10:35:14;11.60;99.90
64396;DHT22;50717;53.360;6.290;2024-03-22T10:37:40;11.20;99.90
64396;DHT22;50717;53.360;6.290;2024-03-22T10:40:06;11.80;99.90
64396;DHT22;50717;53.360;6.290;2024-03-22T10:42:37;11.20;99.90
64396;DHT22;50717;53.360;6.290;2024-03-22T10:45:04;11.20;99.90
64396;DHT22;50717;53.360;6.290;2024-03-22T10:47:31;11.30;99.90
64396;DHT22;50717;53.360;6.290;2024-03-22T10:50:10;11.30;99.90
64396;DHT22;50717;53.360;6.290;2024-03-22T10:52:47;10.70;99.90
64396;DHT22;50717;53.360;6.290;2024-03-22T10:55:22;11.50;99.90
64396;DHT22;50717;53.360;6.290;2024-03-22T10:57:49;11.10;99.90
64396;DHT22;50717;53.360;6.290;2024-03-22T11:00:26;11.40;99.90
64396;DHT22;50717;53.360;6.290;2024-03-22T11:02:53;10.90;99.90
64396;DHT22;50717;53.360;6.290;2024-03-22T11:05:19;11.30;99.90
64396;DHT22;50717;53.360;6.290;2024-03-22T11:07:44;11.10;99.90
64396;DHT22;50717;53.360;6.290;2024-03-22T11:10:14;10.90;99.90
64396;DHT22;50717;53.360;6.290;2024-03-22T11:12:43;11.20;99.90
64396;DHT22;50717;53.360;6.290;2024-03-22T11:15:11;11.20;99.90
64396;DHT22;50717;53.360;6.290;2024-03-22T11:17:37;11.10;99.90
64396;DHT22;50717;53.360;6.290;2024-03-22T11:20:03;11.10;99.90
64396;DHT22;50717;53.360;6.290;2024-03-22T11:22:31;11.50;99.90
64396;DHT22;50717;53.360;6.290;2024-03-22T11:24:57;11.50;99.90
64396;DHT22;50717;53.360;6.290;2024-03-22T11:27:23;10.90;99.90
64396;DHT22;50717;53.360;6.290;2024-03-22T11:29:49;10.90;99.90
64396;DHT22;50717;53.360;6.290;2024-03-22T11:32:16;11.30;99.90
64396;DHT22;50717;53.360;6.290;2024-03-22T11:34:43;12.30;99.90
64396;DHT22;50717;53.360;6.290;2024-03-22T11:37:09;11.40;99.90
64396;DHT22;50717;53.360;6.290;2024-03-22T11:39:39;11.10;99.90
64396;DHT22;50717;53.360;6.290;2024-03-22T11:42:05;11.80;99.90
64396;DHT22;50717;53.360;6.290;2024-03-22T11:44:33;11.30;99.90
64396;DHT22;50717;53.360;6.290;2024-03-22T11:47:00;11.70;99.90
64396;DHT22;50717;53.360;6.290;2024-03-22T11:49:26;11.20;99.90
64396;DHT22;50717;53.360;6.290;2024-03-22T11:51:52;11.70;99.90
64396;DHT22;50717;53.360;6.290;2024-03-22T11:54:21;11.50;99.90
64396;DHT22;50717;53.360;6.290;2024-03-22T11:56:47;11.60;99.90
64396;DHT22;50717;53.360;6.290;2024-03-22T11:59:12;11.80;99.90
64396;DHT22;50717;53.360;6.290;2024-03-22T12:01:38;12.30;99.90
64396;DHT22;50717;53.360;6.290;2024-03-22T12:04:04;11.70;99.90
64396;DHT22;50717;53.360;6.290;2024-03-22T12:06:34;11.90;99.90
64396;DHT22;50717;53.360;6.290;2024-03-22T12:09:00;12.00;99.90
64396;DHT22;50717;53.360;6.290;2024-03-22T12:11:25;11.80;99.90
64396;DHT22;50717;53.360;6.290;2024-03-22T12:13:51;12.40;99.90
64396;DHT22;50717;53.360;6.290;2024-03-22T12:16:17;11.70;99.90
64396;DHT22;50717;53.360;6.290;2024-03-22T12:18:43;11.90;99.90
64396;DHT22;50717;53.360;6.290;2024-03-22T12:21:08;12.00;99.90
64396;DHT22;50717;53.360;6.290;2024-03-22T12:23:34;12.00;99.90
64396;DHT22;50717;53.360;6.290;2024-03-22T12:26:00;11.90;99.90
64396;DHT22;50717;53.360;6.290;2024-03-22T12:28:25;11.80;99.90
64396;DHT22;50717;53.360;6.290;2024-03-22T12:30:51;11.60;99.90
64396;DHT22;50717;53.360;6.290;2024-03-22T12:33:17;11.50;99.90
64396;DHT22;50717;53.360;6.290;2024-03-22T12:35:43;11.80;99.90
64396;DHT22;50717;53.360;6.290;2024-03-22T12:38:08;11.40;99.90
64396;DHT22;50717;53.360;6.290;2024-03-22T12:40:36;11.80;99.90
64396;DHT22;50717;53.360;6.290;2024-03-22T12:43:03;11.90;99.90
64396;DHT22;50717;53.360;6.290;2024-03-22T12:45:29;11.60;99.90
64396;DHT22;50717;53.360;6.290;2024-03-22T12:47:54;11.70;99.90
64396;DHT22;50717;53.360;6.290;2024-03-22T12:50:20;11.60;99.90
64396;DHT22;50717;53.360;6.290;2024-03-22T12:52:45;12.60;99.90
64396;DHT22;50717;53.360;6.290;2024-03-22T12:55:11;12.00;99.90
64396;DHT22;50717;53.360;6.290;2024-03-22T12:57:37;12.00;99.90
64396;DHT22;50717;53.360;6.290;2024-03-22T13:00:03;12.10;99.90
64396;DHT22;50717;53.360;6.290;2024-03-22T13:02:31;11.80;99.90
64396;DHT22;50717;53.360;6.290;2024-03-22T13:04:57;11.70;99.90
64396;DHT22;50717;53.360;6.290;2024-03-22T13:07:23;11.90;99.90
64396;DHT22;50717;53.360;6.290;2024-03-22T13:09:50;11.80;99.90
64396;DHT22;50717;53.360;6.290;2024-03-22T13:12:16;11.60;99.90
64396;DHT22;50717;53.360;6.290;2024-03-22T13:14:41;11.90;99.90
64396;DHT22;50717;53.360;6.290;2024-03-22T13:17:08;11.60;99.90
64396;DHT22;50717;53.360;6.290;2024-03-22T13:19:34;11.80;99.90
64396;DHT22;50717;53.360;6.290;2024-03-22T13:22:00;11.60;99.90
64396;DHT22;50717;53.360;6.290;2024-03-22T13:24:26;11.50;99.90
64396;DHT22;50717;53.360;6.290;2024-03-22T13:26:51;11.50;99.90
64396;DHT22;50717;53.360;6.290;2024-03-22T13:29:17;11.50;99.90
64396;DHT22;50717;53.360;6.290;2024-03-22T13:31:43;11.80;99.90
64396;DHT22;50717;53.360;6.290;2024-03-22T13:34:09;11.50;99.90
64396;DHT22;50717;53.360;6.290;2024-03-22T13:36:34;11.80;99.90
64396;DHT22;50717;53.360;6.290;2024-03-22T13:39:03;11.50;99.90
64396;DHT22;50717;53.360;6.290;2024-03-22T13:41:29;11.40;99.90
64396;DHT22;50717;53.360;6.290;2024-03-22T13:43:54;11.20;99.90
64396;DHT22;50717;53.360;6.290;2024-03-22T13:46:20;11.30;99.90
64396;DHT22;50717;53.360;6.290;2024-03-22T13:48:46;11.20;99.90
64396;DHT22;50717;53.360;6.290;2024-03-22T13:51:11;11.40;99.90
64396;DHT22;50717;53.360;6.290;2024-03-22T13:53:37;11.60;99.90
64396;DHT22;50717;53.360;6.290;2024-03-22T13:56:03;11.70;99.90
64396;DHT22;50717;53.360;6.290;2024-03-22T13:58:29;11.60;99.90
64396;DHT22;50717;53.360;6.290;2024-03-22T14:00:54;11.20;99.90
64396;DHT22;50717;53.360;6.290;2024-03-22T14:03:20;11.20;99.90
64396;DHT22;50717;53.360;6.290;2024-03-22T14:05:46;11.80;99.90
64396;DHT22;50717;53.360;6.290;2024-03-22T14:08:11;11.40;99.90
64396;DHT22;50717;53.360;6.290;2024-03-22T14:10:37;11.50;99.90
64396;DHT22;50717;53.360;6.290;2024-03-22T14:13:03;11.80;99.90
64396;DHT22;50717;53.360;6.290;2024-03-22T14:15:29;11.80;99.90
64396;DHT22;50717;53.360;6.290;2024-03-22T14:17:57;11.50;99.90
64396;DHT22;50717;53.360;6.290;2024-03-22T14:20:23;11.60;99.90
64396;DHT22;50717;53.360;6.290;2024-03-22T14:22:50;12.00;99.90
64396;DHT22;50717;53.360;6.290;2024-03-22T14:25:17;12.00;99.90
64396;DHT22;50717;53.360;6.290;2024-03-22T14:27:43;11.70;99.90
64396;DHT22;50717;53.360;6.290;2024-03-22T14:30:11;11.70;99.90
64396;DHT22;50717;53.360;6.290;2024-03-22T14:32:38;11.80;99.90
64396;DHT22;50717;53.360;6.290;2024-03-22T14:35:04;11.70;93.60
64396;DHT22;50717;53.360;6.290;2024-03-22T14:37:31;11.60;80.60
64396;DHT22;50717;53.360;6.290;2024-03-22T14:39:57;11.80;70.30
64396;DHT22;50717;53.360;6.290;2024-03-22T14:42:23;11.60;60.10
64396;DHT22;50717;53.360;6.290;2024-03-22T14:44:48;11.60;61.40
64396;DHT22;50717;53.360;6.290;2024-03-22T14:47:14;11.60;57.40
64396;DHT22;50717;53.360;6.290;2024-03-22T14:49:39;11.60;39.80
64396;DHT22;50717;53.360;6.290;2024-03-22T14:52:06;11.30;46.70
64396;DHT22;50717;53.360;6.290;2024-03-22T14:54:32;11.60;41.70
64396;DHT22;50717;53.360;6.290;2024-03-22T14:56:57;12.00;48.60
64396;DHT22;50717;53.360;6.290;2024-03-22T14:59:26;11.50;44.90
64396;DHT22;50717;53.360;6.290;2024-03-22T15:01:53;11.40;42.20
64396;DHT22;50717;53.360;6.290;2024-03-22T15:04:19;11.40;40.60
64396;DHT22;50717;53.360;6.290;2024-03-22T15:06:45;11.70;24.30
64396;DHT22;50717;53.360;6.290;2024-03-22T15:09:13;11.60;17.60
64396;DHT22;50717;53.360;6.290;2024-03-22T15:11:38;11.40;15.70
64396;DHT22;50717;53.360;6.290;2024-03-22T15:14:04;11.50;9.80
64396;DHT22;50717;53.360;6.290;2024-03-22T15:16:30;11.40;16.50
64396;DHT22;50717;53.360;6.290;2024-03-22T15:18:56;11.70;28.80
64396;DHT22;50717;53.360;6.290;2024-03-22T15:21:22;11.50;27.90
64396;DHT22;50717;53.360;6.290;2024-03-22T15:23:47;11.80;26.90